Time;durP1;ratioP1;P1;durP2;ratioP2;P2;SDS_P1;SDS_P2;PMS_P1;PMS_P2;Temp;Humidity;BMP_temperature;BMP_pressure;BME280_temperature;BME280_humidity;BME280_pressure;Samples;Min_cycle;Max_cycle;Signal;HPM_P1;HPM_P2
2023/09/15 00:01:36;;;;;;;5.82;2.40;;;11.30;99.90;;;;;;5009982;28;20078;-80
2023/09/15 00:04:06;;;;;;;9.80;2.85;;;11.30;99.90;;;;;;4994055;28;20129;-80
2023/09/15 00:06:34;;;;;;;10.95;2.85;;;11.30;99.90;;;;;;4994392;28;20084;-79
2023/09/15 00:09:06;;;;;;;7.20;2.65;;;11.30;99.90;;;;;;4994464;28;20081;-80
2023/09/15 00:11:40;;;;;;;6.00;2.55;;;11.30;99.90;;;;;;5009752;28;20491;-80
2023/09/15 00:14:12;;;;;;;6.60;2.72;;;11.20;99.90;;;;;;4994859;28;20065;-80
2023/09/15 00:16:40;;;;;;;6.80;2.75;;;11.20;99.90;;;;;;5009917;28;20046;-80
2023/09/15 00:19:13;;;;;;;5.18;2.67;;;11.20;99.90;;;;;;4994172;28;20491;-80
2023/09/15 00:21:40;;;;;;;8.13;2.97;;;11.20;99.90;;;;;;5025768;28;20043;-80
2023/09/15 00:24:07;;;;;;;11.05;3.00;;;11.20;99.90;;;;;;5025941;28;20050;-81
2023/09/15 00:26:34;;;;;;;7.78;3.15;;;11.20;99.90;;;;;;4993957;28;20200;-81
2023/09/15 00:29:02;;;;;;;8.43;2.90;;;11.10;99.90;;;;;;4993878;28;20488;-81
2023/09/15 00:31:29;;;;;;;5.43;2.55;;;11.10;99.90;;;;;;5009724;28;20125;-81
2023/09/15 00:33:56;;;;;;;6.10;2.50;;;11.10;99.90;;;;;;4993723;28;20046;-81
2023/09/15 00:36:23;;;;;;;5.57;2.50;;;11.10;99.90;;;;;;4993744;28;20049;-81
2023/09/15 00:38:49;;;;;;;5.72;2.67;;;11.10;99.90;;;;;;4993797;28;20038;-81
2023/09/15 00:41:16;;;;;;;5.43;2.88;;;11.10;99.90;;;;;;4993922;28;20090;-81
2023/09/15 00:43:42;;;;;;;6.55;3.00;;;11.00;99.90;;;;;;4993540;28;20041;-81
2023/09/15 00:46:10;;;;;;;7.15;2.97;;;11.00;99.90;;;;;;4994005;28;20105;-81
2023/09/15 00:48:39;;;;;;;5.53;2.88;;;11.00;99.90;;;;;;4993440;28;20048;-81
2023/09/15 00:51:07;;;;;;;5.68;2.45;;;11.00;99.90;;;;;;5009605;28;20548;-81
2023/09/15 00:53:37;;;;;;;5.97;2.78;;;10.90;99.90;;;;;;4994483;28;20133;-81
2023/09/15 00:56:05;;;;;;;7.68;3.35;;;10.90;99.90;;;;;;5012997;28;20082;-81
2023/09/15 00:58:32;;;;;;;8.13;2.78;;;10.90;99.90;;;;;;4997134;28;20092;-81
2023/09/15 01:01:00;;;;;;;6.10;2.97;;;10.90;99.90;;;;;;5010043;28;20035;-81
2023/09/15 01:03:32;;;;;;;6.15;3.03;;;10.80;99.90;;;;;;5013119;28;20392;-81
2023/09/15 01:05:59;;;;;;;4.50;2.60;;;10.80;99.90;;;;;;4997690;28;20124;-81
2023/09/15 01:08:26;;;;;;;5.40;2.70;;;10.80;99.90;;;;;;4997101;28;20141;-81
2023/09/15 01:10:52;;;;;;;10.75;3.20;;;10.80;99.90;;;;;;4996905;28;20860;-81
2023/09/15 01:13:19;;;;;;;5.15;3.22;;;10.70;99.90;;;;;;4994200;28;20058;-81
2023/09/15 01:15:52;;;;;;;7.18;3.10;;;10.70;99.90;;;;;;4986418;28;20053;-81
2023/09/15 01:18:29;;;;;;;9.57;3.15;;;10.70;99.90;;;;;;5012770;28;20034;-81
2023/09/15 01:21:32;;;;;;;7.82;3.38;;;10.80;99.90;;;;;;5028971;28;20046;-81
2023/09/15 01:24:23;;;;;;;5.07;3.08;;;10.70;99.90;;;;;;5012904;28;20038;-81
2023/09/15 01:27:17;;;;;;;7.15;3.55;;;10.70;99.90;;;;;;5012621;28;20045;-81
2023/09/15 01:29:54;;;;;;;7.60;3.42;;;10.70;99.90;;;;;;5011759;28;20128;-81
2023/09/15 01:32:22;;;;;;;6.93;3.58;;;10.70;99.90;;;;;;5012582;28;20038;-81
2023/09/15 01:34:51;;;;;;;8.75;3.47;;;10.70;99.90;;;;;;5012207;28;20497;-81
2023/09/15 01:37:19;;;;;;;7.15;3.53;;;10.70;99.90;;;;;;5028611;28;20034;-81
2023/09/15 01:39:46;;;;;;;6.15;3.28;;;10.70;99.90;;;;;;5012191;28;20113;-81
2023/09/15 01:42:13;;;;;;;5.82;3.58;;;10.70;99.90;;;;;;5012584;28;20035;-81
2023/09/15 01:44:40;;;;;;;7.25;3.50;;;10.60;99.90;;;;;;5012063;28;20145;-81
2023/09/15 01:47:08;;;;;;;6.40;3.33;;;10.60;99.90;;;;;;5013147;28;20053;-81
2023/09/15 01:49:37;;;;;;;10.55;4.00;;;10.60;99.90;;;;;;5028815;28;20059;-80
2023/09/15 01:52:04;;;;;;;6.97;3.40;;;10.60;99.90;;;;;;5007840;28;20514;-81
2023/09/15 01:54:31;;;;;;;8.90;3.88;;;10.60;99.90;;;;;;4992755;28;20454;-81
2023/09/15 01:56:58;;;;;;;6.68;3.70;;;10.60;99.90;;;;;;4995888;28;20116;-80
2023/09/15 01:59:25;;;;;;;7.97;4.13;;;10.60;99.90;;;;;;5011657;28;20460;-81
2023/09/15 02:01:52;;;;;;;8.43;3.60;;;10.60;99.90;;;;;;4995950;28;20092;-80
2023/09/15 02:04:19;;;;;;;8.63;3.80;;;10.50;99.90;;;;;;4995590;28;20120;-80
2023/09/15 02:06:46;;;;;;;5.65;3.75;;;10.60;99.90;;;;;;4995802;28;20046;-81
2023/09/15 02:09:17;;;;;;;8.00;4.03;;;10.60;99.90;;;;;;5028229;28;20046;-81
2023/09/15 02:11:44;;;;;;;7.72;4.25;;;10.50;99.90;;;;;;4996089;28;20044;-81
2023/09/15 02:14:10;;;;;;;9.25;4.45;;;10.50;99.90;;;;;;4995487;28;20066;-81
2023/09/15 02:16:37;;;;;;;6.90;3.75;;;10.50;99.90;;;;;;4995777;28;20049;-80
2023/09/15 02:19:06;;;;;;;6.70;4.03;;;10.50;99.90;;;;;;4995780;28;20045;-80
2023/09/15 02:21:33;;;;;;;7.90;3.90;;;10.40;99.90;;;;;;5027896;28;20411;-80
2023/09/15 02:24:01;;;;;;;6.47;4.07;;;10.50;99.90;;;;;;4995229;28;20042;-81
2023/09/15 02:26:28;;;;;;;8.55;4.18;;;10.40;99.90;;;;;;4995698;28;20145;-81
2023/09/15 02:28:55;;;;;;;8.27;4.28;;;10.40;99.90;;;;;;5011254;28;20129;-81
2023/09/15 02:31:22;;;;;;;8.82;4.50;;;10.40;99.90;;;;;;4995429;28;20486;-80
2023/09/15 02:33:49;;;;;;;7.97;3.97;;;10.40;99.90;;;;;;4994870;28;20403;-81
2023/09/15 02:36:15;;;;;;;8.07;3.70;;;10.30;99.90;;;;;;4995322;28;20034;-81
2023/09/15 02:38:42;;;;;;;11.18;3.97;;;10.30;99.90;;;;;;4995453;28;20054;-81
2023/09/15 02:41:09;;;;;;;10.20;4.20;;;10.30;99.90;;;;;;5011059;28;20050;-81
2023/09/15 02:43:35;;;;;;;8.38;4.25;;;10.30;99.90;;;;;;4995211;28;20049;-81
2023/09/15 02:46:04;;;;;;;7.88;4.55;;;10.30;99.90;;;;;;5027053;28;20590;-81
2023/09/15 02:48:30;;;;;;;9.00;4.10;;;10.30;99.90;;;;;;4996835;28;20042;-81
2023/09/15 02:50:58;;;;;;;11.75;4.20;;;10.30;99.90;;;;;;4975400;28;20082;-81
2023/09/15 02:53:25;;;;;;;7.43;4.50;;;10.30;99.90;;;;;;4991690;28;20049;-81
2023/09/15 02:56:04;;;;;;;6.90;4.18;;;10.30;99.90;;;;;;4975249;28;20043;-81
2023/09/15 02:58:32;;;;;;;9.60;4.50;;;10.30;99.90;;;;;;4991686;28;20101;-80
2023/09/15 03:00:59;;;;;;;6.70;4.63;;;10.30;99.90;;;;;;5007370;28;20042;-81
2023/09/15 03:03:25;;;;;;;7.90;4.70;;;10.30;99.90;;;;;;4975707;28;20039;-80
2023/09/15 03:06:03;;;;;;;7.55;4.95;;;10.20;99.90;;;;;;4975294;28;20149;-81
2023/09/15 03:08:30;;;;;;;7.45;4.78;;;10.20;99.90;;;;;;4991749;28;20084;-81
2023/09/15 03:10:56;;;;;;;8.18;4.90;;;10.20;99.90;;;;;;4991120;28;20518;-80
2023/09/15 03:13:23;;;;;;;7.55;4.57;;;10.20;99.90;;;;;;4975934;28;20086;-80
2023/09/15 03:15:50;;;;;;;9.02;5.22;;;10.20;99.90;;;;;;4974738;28;20526;-80
2023/09/15 03:18:17;;;;;;;10.68;5.18;;;10.20;99.90;;;;;;4990667;28;20039;-80
2023/09/15 03:20:44;;;;;;;10.48;5.20;;;10.20;99.90;;;;;;4975244;28;20412;-80
2023/09/15 03:23:10;;;;;;;7.03;4.50;;;10.20;99.90;;;;;;4990680;28;20039;-80
2023/09/15 03:25:37;;;;;;;9.23;4.50;;;10.20;99.90;;;;;;4980322;28;20123;-80
2023/09/15 03:28:04;;;;;;;7.35;4.75;;;10.20;99.90;;;;;;5004183;28;20050;-81
2023/09/15 03:30:30;;;;;;;8.60;4.85;;;10.10;99.90;;;;;;5010491;28;20137;-80
2023/09/15 03:32:57;;;;;;;10.15;5.00;;;10.10;99.90;;;;;;4994062;28;20050;-81
2023/09/15 03:35:24;;;;;;;8.07;4.47;;;10.10;99.90;;;;;;4988368;28;20522;-81
2023/09/15 03:37:51;;;;;;;8.90;5.55;;;10.10;99.90;;;;;;4975383;28;20042;-80
2023/09/15 03:40:18;;;;;;;11.02;4.97;;;10.00;99.90;;;;;;4974914;28;20491;-81
2023/09/15 03:42:47;;;;;;;8.50;5.38;;;10.10;99.90;;;;;;4990830;28;20035;-81
2023/09/15 03:45:14;;;;;;;9.82;5.10;;;10.10;99.90;;;;;;4990781;28;20043;-81
2023/09/15 03:47:41;;;;;;;9.45;4.85;;;10.00;99.90;;;;;;4974748;28;20042;-80
2023/09/15 03:50:09;;;;;;;9.05;5.30;;;10.00;99.90;;;;;;4974425;28;20051;-81
2023/09/15 03:52:36;;;;;;;10.52;5.32;;;10.00;99.90;;;;;;4975220;28;20732;-80
2023/09/15 03:55:03;;;;;;;8.27;4.95;;;10.00;99.90;;;;;;4974399;28;20049;-80
2023/09/15 03:57:30;;;;;;;8.65;5.22;;;10.00;99.90;;;;;;4990353;28;20513;-80
2023/09/15 03:59:57;;;;;;;9.02;5.07;;;10.00;99.90;;;;;;4990440;28;20046;-80
2023/09/15 04:02:23;;;;;;;11.32;5.28;;;9.90;99.90;;;;;;4990521;28;20053;-80
2023/09/15 04:04:51;;;;;;;8.98;5.18;;;9.90;99.90;;;;;;4975103;28;20109;-80
2023/09/15 04:07:18;;;;;;;8.40;4.90;;;9.90;99.90;;;;;;5006661;28;20539;-80
2023/09/15 04:09:44;;;;;;;9.20;5.35;;;9.90;99.90;;;;;;4974630;28;20086;-81
2023/09/15 04:12:11;;;;;;;8.73;5.53;;;9.80;99.90;;;;;;4974718;28;20082;-80
2023/09/15 04:14:38;;;;;;;8.73;5.30;;;9.90;99.90;;;;;;4974465;28;20142;-80
2023/09/15 04:17:04;;;;;;;9.85;4.93;;;9.80;99.90;;;;;;4974644;28;20117;-81
2023/09/15 04:19:31;;;;;;;13.57;5.25;;;9.80;99.90;;;;;;4974678;28;20067;-81
2023/09/15 04:21:59;;;;;;;9.40;5.32;;;9.80;99.90;;;;;;4990483;28;20039;-81
2023/09/15 04:24:26;;;;;;;8.55;5.57;;;9.80;99.90;;;;;;4974439;28;20047;-81
2023/09/15 04:26:52;;;;;;;11.57;5.68;;;9.80;99.90;;;;;;4974864;28;20050;-80
2023/09/15 04:29:19;;;;;;;10.85;5.55;;;9.80;99.90;;;;;;4976364;28;20053;-81
2023/09/15 04:31:46;;;;;;;10.45;5.60;;;9.70;99.90;;;;;;4978384;28;20224;-80
2023/09/15 04:34:14;;;;;;;10.55;5.50;;;9.70;99.90;;;;;;4978060;28;20043;-81
2023/09/15 04:36:42;;;;;;;9.27;5.53;;;9.70;99.90;;;;;;4978562;28;20121;-81
2023/09/15 04:39:10;;;;;;;9.15;5.70;;;9.70;99.90;;;;;;4978039;28;20035;-80
2023/09/15 04:41:37;;;;;;;8.98;6.00;;;9.60;99.90;;;;;;4993994;28;20053;-80
2023/09/15 04:44:04;;;;;;;10.30;5.90;;;9.70;99.90;;;;;;4978434;28;20043;-80
2023/09/15 04:46:30;;;;;;;8.32;5.90;;;9.60;99.90;;;;;;4977988;28;20045;-81
2023/09/15 04:48:57;;;;;;;9.30;5.78;;;9.60;99.90;;;;;;4978130;28;20043;-80
2023/09/15 04:51:24;;;;;;;9.23;6.00;;;9.60;99.90;;;;;;4977927;28;20038;-80
2023/09/15 04:53:50;;;;;;;9.05;6.07;;;9.60;99.90;;;;;;4977674;28;20070;-81
2023/09/15 04:56:17;;;;;;;11.30;6.00;;;9.60;99.90;;;;;;4977057;28;20134;-80
2023/09/15 04:58:45;;;;;;;8.25;5.90;;;9.60;99.90;;;;;;4977461;28;20484;-81
2023/09/15 05:01:16;;;;;;;10.25;5.50;;;9.60;99.90;;;;;;4993376;28;20393;-80
2023/09/15 05:03:44;;;;;;;11.68;6.60;;;9.60;99.90;;;;;;4994446;28;20042;-81
2023/09/15 05:06:10;;;;;;;12.18;6.55;;;9.60;99.90;;;;;;4977253;28;20053;-81
2023/09/15 05:08:40;;;;;;;17.20;7.00;;;9.60;99.90;;;;;;4978005;28;20554;-81
2023/09/15 05:11:07;;;;;;;10.02;6.75;;;9.50;99.90;;;;;;4977745;28;20050;-80
2023/09/15 05:13:33;;;;;;;9.52;6.30;;;9.60;99.90;;;;;;4977188;28;20066;-81
2023/09/15 05:16:02;;;;;;;12.10;6.85;;;9.60;99.90;;;;;;4977530;28;20050;-81
2023/09/15 05:18:32;;;;;;;9.95;6.43;;;9.60;99.90;;;;;;4977699;28;20097;-81
2023/09/15 05:20:59;;;;;;;11.20;5.93;;;9.50;99.90;;;;;;4978288;28;20049;-80
2023/09/15 05:23:25;;;;;;;12.57;6.60;;;9.50;99.90;;;;;;4993396;28;20658;-81
2023/09/15 05:25:53;;;;;;;8.55;6.07;;;9.50;99.90;;;;;;4977196;28;20105;-80
2023/09/15 05:28:20;;;;;;;12.55;6.85;;;9.50;99.90;;;;;;4977103;28;20510;-81
2023/09/15 05:30:47;;;;;;;12.23;6.47;;;9.50;99.90;;;;;;4993492;28;20054;-80
2023/09/15 05:33:15;;;;;;;12.48;6.72;;;9.50;99.90;;;;;;4993163;28;20046;-81
2023/09/15 05:35:42;;;;;;;12.50;6.88;;;9.50;99.90;;;;;;4977227;28;20404;-80
2023/09/15 05:38:08;;;;;;;11.95;6.47;;;9.50;99.90;;;;;;4977382;28;20045;-80
2023/09/15 05:40:35;;;;;;;10.10;6.13;;;9.60;99.90;;;;;;4976150;28;20035;-81
2023/09/15 05:43:02;;;;;;;13.02;6.80;;;9.60;99.90;;;;;;5000133;28;20514;-80
2023/09/15 05:45:29;;;;;;;12.00;7.10;;;9.60;99.90;;;;;;4996315;28;20046;-81
2023/09/15 05:47:56;;;;;;;10.15;6.28;;;9.60;99.90;;;;;;4996369;28;20129;-81
2023/09/15 05:50:23;;;;;;;11.77;6.97;;;9.70;99.90;;;;;;5028474;28;20034;-81
2023/09/15 05:52:52;;;;;;;9.15;6.47;;;9.70;99.90;;;;;;5011766;28;20038;-81
2023/09/15 05:55:19;;;;;;;10.35;6.63;;;9.70;99.90;;;;;;4976681;28;20045;-81
2023/09/15 05:57:46;;;;;;;12.30;7.57;;;9.80;99.90;;;;;;4992578;28;20042;-80
2023/09/15 06:00:13;;;;;;;12.13;7.03;;;9.90;99.90;;;;;;4976694;28;20511;-81
2023/09/15 06:02:39;;;;;;;10.85;6.68;;;9.90;99.90;;;;;;4976328;28;20077;-81
2023/09/15 06:05:07;;;;;;;9.30;6.90;;;9.90;99.90;;;;;;4976719;28;20054;-80
2023/09/15 06:07:33;;;;;;;10.77;6.55;;;10.00;99.90;;;;;;4976645;28;20126;-81
2023/09/15 06:10:00;;;;;;;11.65;6.82;;;10.00;99.90;;;;;;4976477;28;20129;-81
2023/09/15 06:12:26;;;;;;;14.45;6.60;;;10.00;99.90;;;;;;4976861;28;20057;-81
2023/09/15 06:14:57;;;;;;;11.32;6.88;;;10.10;99.90;;;;;;4976211;28;20152;-80
2023/09/15 06:17:23;;;;;;;12.55;6.32;;;10.20;99.90;;;;;;4976130;28;20488;-81
2023/09/15 06:19:51;;;;;;;14.25;7.78;;;10.20;99.90;;;;;;4976274;28;20045;-81
2023/09/15 06:22:18;;;;;;;10.07;6.88;;;10.20;99.90;;;;;;4976650;28;20450;-81
2023/09/15 06:24:45;;;;;;;11.82;7.30;;;10.20;99.90;;;;;;4975992;28;20101;-81
2023/09/15 06:27:14;;;;;;;13.32;6.68;;;10.30;99.90;;;;;;4977376;28;20054;-81
2023/09/15 06:29:41;;;;;;;10.05;6.40;;;10.30;99.90;;;;;;4994063;28;20046;-81
2023/09/15 06:32:08;;;;;;;10.45;6.68;;;10.40;99.90;;;;;;5011702;28;20481;-81
2023/09/15 06:34:34;;;;;;;15.05;7.75;;;10.50;99.90;;;;;;4995262;28;20049;-81
2023/09/15 06:37:01;;;;;;;10.85;6.47;;;10.50;99.90;;;;;;4995445;28;20042;-81
2023/09/15 06:39:28;;;;;;;11.60;6.53;;;10.60;99.90;;;;;;5011077;28;20041;-81
2023/09/15 06:41:55;;;;;;;12.35;6.10;;;10.60;99.90;;;;;;4995389;28;20034;-81
2023/09/15 06:44:22;;;;;;;10.50;6.47;;;10.70;99.90;;;;;;4995550;28;20141;-80
2023/09/15 06:46:48;;;;;;;10.40;6.35;;;10.80;99.90;;;;;;4995418;28;20030;-81
2023/09/15 06:49:21;;;;;;;11.40;6.28;;;10.80;99.90;;;;;;4986659;28;20096;-81
2023/09/15 06:51:49;;;;;;;11.40;6.50;;;10.90;99.90;;;;;;4991418;28;20116;-81
2023/09/15 06:54:15;;;;;;;9.38;5.95;;;11.00;99.90;;;;;;4975799;28;20042;-81
2023/09/15 06:56:42;;;;;;;11.00;6.18;;;11.00;99.90;;;;;;4991686;28;20050;-81
2023/09/15 06:59:09;;;;;;;10.85;6.45;;;11.10;99.90;;;;;;4991643;28;20042;-81
2023/09/15 07:01:35;;;;;;;13.50;6.93;;;11.10;99.90;;;;;;4975449;28;20042;-81
2023/09/15 07:04:03;;;;;;;10.13;5.97;;;11.20;99.90;;;;;;4991830;28;20578;-80
2023/09/15 07:06:30;;;;;;;15.52;6.40;;;11.30;99.90;;;;;;4975277;28;20039;-81
2023/09/15 07:08:57;;;;;;;12.02;6.32;;;11.30;99.90;;;;;;4975296;28;20169;-80
2023/09/15 07:11:23;;;;;;;10.85;6.32;;;11.50;99.90;;;;;;4994937;28;20042;-80
2023/09/15 07:13:50;;;;;;;9.75;5.78;;;11.50;99.90;;;;;;4957534;29;20110;-80
2023/09/15 07:16:17;;;;;;;10.25;6.00;;;11.60;99.90;;;;;;4982992;28;20117;-80
2023/09/15 07:18:44;;;;;;;12.00;6.20;;;11.70;99.90;;;;;;4990778;28;20040;-81
2023/09/15 07:21:10;;;;;;;10.00;6.03;;;11.80;99.90;;;;;;5006915;28;20074;-80
2023/09/15 07:23:37;;;;;;;11.15;5.75;;;11.80;99.90;;;;;;4990337;28;20562;-80
2023/09/15 07:26:04;;;;;;;11.25;6.10;;;11.90;99.90;;;;;;5006136;28;20510;-80
2023/09/15 07:28:30;;;;;;;12.18;5.72;;;12.10;99.90;;;;;;4956552;28;20047;-80
2023/09/15 07:31:04;;;;;;;10.52;5.40;;;12.20;99.90;;;;;;4971525;29;20054;-80
2023/09/15 07:33:31;;;;;;;9.05;5.47;;;12.40;99.90;;;;;;4988406;28;20042;-80
2023/09/15 07:36:04;;;;;;;9.98;5.43;;;12.50;99.90;;;;;;4973856;28;20070;-80
2023/09/15 07:38:31;;;;;;;7.82;5.20;;;12.60;99.90;;;;;;5006181;28;20034;-80
2023/09/15 07:40:58;;;;;;;11.63;5.40;;;12.80;99.90;;;;;;4972060;29;20098;-80
2023/09/15 07:43:25;;;;;;;12.10;5.13;;;12.90;99.90;;;;;;4964784;28;20042;-80
2023/09/15 07:45:51;;;;;;;10.80;4.75;;;13.00;99.90;;;;;;4974135;29;20050;-80
2023/09/15 07:48:18;;;;;;;7.45;4.68;;;13.20;99.90;;;;;;4967723;28;20586;-80
2023/09/15 07:50:48;;;;;;;9.10;5.05;;;13.30;99.90;;;;;;4974155;28;20054;-80
2023/09/15 07:53:14;;;;;;;13.27;5.22;;;13.40;99.90;;;;;;4991097;28;20043;-88
2023/09/15 07:55:41;;;;;;;12.13;4.70;;;13.50;99.90;;;;;;4991137;28;20050;-90
2023/09/15 07:58:09;;;;;;;8.82;4.72;;;13.60;99.90;;;;;;4975534;28;20100;-89
2023/09/15 08:00:36;;;;;;;9.98;4.80;;;13.70;99.90;;;;;;4975789;28;20043;-88
2023/09/15 08:03:03;;;;;;;8.70;5.07;;;13.80;99.90;;;;;;4991496;28;20047;-89
2023/09/15 08:05:30;;;;;;;12.40;4.88;;;14.00;99.90;;;;;;4971654;29;20631;-88
2023/09/15 08:07:56;;;;;;;8.38;4.28;;;14.10;99.90;;;;;;4987612;29;20130;-86
2023/09/15 08:10:23;;;;;;;11.20;4.75;;;14.10;99.90;;;;;;4974534;29;20035;-89
2023/09/15 08:12:52;;;;;;;12.15;4.32;;;14.30;99.90;;;;;;4971411;29;20047;-89
2023/09/15 08:15:20;;;;;;;12.77;4.28;;;14.40;99.90;;;;;;4997959;28;20050;-89
2023/09/15 08:17:47;;;;;;;10.15;4.18;;;14.50;99.90;;;;;;4990670;28;20239;-89
2023/09/15 08:20:14;;;;;;;9.05;4.65;;;14.60;99.90;;;;;;4975077;28;20047;-89
2023/09/15 08:22:41;;;;;;;7.60;4.50;;;14.70;99.90;;;;;;4991147;28;20043;-90
2023/09/15 08:25:10;;;;;;;8.23;4.22;;;14.80;99.90;;;;;;4990740;28;20050;-80
2023/09/15 08:27:38;;;;;;;8.27;4.03;;;15.00;99.90;;;;;;4990161;28;20109;-80
2023/09/15 08:30:08;;;;;;;12.50;4.60;;;15.10;99.90;;;;;;4993838;28;20038;-80
2023/09/15 08:32:35;;;;;;;7.78;4.38;;;15.10;99.90;;;;;;5001259;28;20074;-80
2023/09/15 08:35:03;;;;;;;9.55;4.15;;;15.30;99.90;;;;;;4993509;28;20081;-80
2023/09/15 08:37:31;;;;;;;7.45;4.18;;;15.40;99.90;;;;;;5009512;28;20077;-80
2023/09/15 08:39:58;;;;;;;11.50;3.72;;;15.40;99.90;;;;;;4991067;28;20042;-80
2023/09/15 08:42:29;;;;;;;10.65;4.03;;;15.50;99.90;;;;;;4986919;28;20035;-80
2023/09/15 08:44:57;;;;;;;7.75;3.60;;;15.60;99.90;;;;;;4989734;28;20499;-80
2023/09/15 08:47:27;;;;;;;10.50;4.07;;;15.80;99.90;;;;;;4989747;28;20047;-80
2023/09/15 08:49:56;;;;;;;7.97;3.88;;;15.90;99.90;;;;;;5005454;28;20503;-80
2023/09/15 08:52:23;;;;;;;10.45;4.07;;;16.00;99.90;;;;;;4989318;28;20050;-80
2023/09/15 08:54:51;;;;;;;9.27;3.83;;;16.10;99.90;;;;;;4973959;28;20201;-80
2023/09/15 08:57:19;;;;;;;7.40;3.78;;;16.30;99.90;;;;;;5010821;28;20077;-80
2023/09/15 08:59:46;;;;;;;10.15;4.00;;;16.40;99.90;;;;;;4988487;28;20046;-80
2023/09/15 09:02:14;;;;;;;7.75;3.40;;;16.40;99.90;;;;;;4993084;28;20569;-80
2023/09/15 09:04:41;;;;;;;8.30;3.67;;;16.60;99.90;;;;;;4993376;28;20042;-82
2023/09/15 09:07:09;;;;;;;6.25;3.58;;;16.70;99.90;;;;;;5010450;28;20743;-80
2023/09/15 09:09:38;;;;;;;7.97;3.55;;;16.80;99.90;;;;;;4973863;28;20523;-80
2023/09/15 09:12:05;;;;;;;8.75;3.20;;;16.90;99.90;;;;;;4989290;28;20072;-80
2023/09/15 09:14:31;;;;;;;8.65;3.40;;;17.00;99.90;;;;;;4973943;28;20131;-80
2023/09/15 09:17:00;;;;;;;7.63;3.25;;;17.10;99.90;;;;;;4976915;28;20159;-80
2023/09/15 09:19:38;;;;;;;10.18;3.20;;;17.20;99.90;;;;;;4993259;28;20047;-80
2023/09/15 09:22:07;;;;;;;5.88;2.80;;;17.30;99.90;;;;;;4977251;28;20039;-80
2023/09/15 09:24:37;;;;;;;6.25;3.10;;;17.40;99.90;;;;;;4993228;28;20046;-81
2023/09/15 09:27:09;;;;;;;8.43;3.58;;;17.50;99.90;;;;;;4981809;28;20049;-80
2023/09/15 09:29:39;;;;;;;5.60;2.88;;;17.60;99.90;;;;;;4996228;28;20093;-82
2023/09/15 09:32:06;;;;;;;8.82;3.30;;;17.70;99.90;;;;;;4996254;28;20132;-84
2023/09/15 09:34:33;;;;;;;5.63;2.67;;;17.80;99.90;;;;;;5028529;28;20046;-82
2023/09/15 09:37:00;;;;;;;9.63;3.20;;;17.90;99.90;;;;;;4996105;28;20073;-82
2023/09/15 09:39:28;;;;;;;8.82;2.97;;;18.00;99.90;;;;;;4996207;28;20053;-81
2023/09/15 09:41:57;;;;;;;7.22;3.15;;;18.10;99.90;;;;;;4982527;28;20034;-81
2023/09/15 09:44:24;;;;;;;7.43;2.78;;;18.20;99.90;;;;;;4992732;28;20070;-81
2023/09/15 09:46:54;;;;;;;7.80;3.10;;;18.30;99.90;;;;;;4992406;28;20062;-82
2023/09/15 09:49:21;;;;;;;6.72;3.13;;;18.40;99.90;;;;;;4985377;28;20459;-81
2023/09/15 09:51:51;;;;;;;7.32;3.75;;;18.50;99.90;;;;;;4976351;28;20042;-82
2023/09/15 09:54:18;;;;;;;8.57;3.05;;;18.60;99.90;;;;;;4992314;28;20126;-82
2023/09/15 09:56:49;;;;;;;8.63;3.78;;;18.70;99.90;;;;;;4980357;28;20035;-82
2023/09/15 09:59:16;;;;;;;7.88;3.60;;;18.70;99.90;;;;;;4978621;28;20046;-82
2023/09/15 10:01:43;;;;;;;6.72;3.40;;;18.80;99.90;;;;;;5008419;28;20039;-82
2023/09/15 10:04:10;;;;;;;9.20;3.75;;;18.90;99.90;;;;;;4976001;28;20049;-82
2023/09/15 10:06:37;;;;;;;6.88;3.58;;;19.00;99.90;;;;;;4976577;28;20507;-81
2023/09/15 10:09:05;;;;;;;9.15;4.10;;;19.10;99.90;;;;;;4992203;28;20081;-82
2023/09/15 10:11:34;;;;;;;9.95;3.50;;;19.10;99.90;;;;;;4976717;28;20047;-82
2023/09/15 10:14:05;;;;;;;5.75;3.08;;;19.20;99.90;;;;;;4975751;28;20050;-82
2023/09/15 10:16:32;;;;;;;7.95;3.55;;;19.20;99.90;;;;;;4976239;28;20050;-82
2023/09/15 10:19:03;;;;;;;9.70;3.53;;;19.30;99.90;;;;;;4975794;28;20051;-82
2023/09/15 10:21:34;;;;;;;10.05;3.92;;;19.30;99.90;;;;;;4994069;28;20042;-82
2023/09/15 10:24:06;;;;;;;8.27;3.33;;;19.50;99.90;;;;;;4991656;28;20042;-82
2023/09/15 10:26:33;;;;;;;5.95;3.40;;;19.50;99.90;;;;;;4991840;28;20042;-81
2023/09/15 10:29:01;;;;;;;8.60;3.03;;;19.50;99.90;;;;;;4975628;28;20042;-81
2023/09/15 10:31:35;;;;;;;6.38;2.65;;;19.50;99.90;;;;;;5008166;28;20058;-82
2023/09/15 10:34:04;;;;;;;7.75;2.80;;;19.70;99.90;;;;;;4995616;28;20038;-82
2023/09/15 10:36:34;;;;;;;8.52;2.20;;;19.80;99.90;;;;;;4995097;28;20380;-81
2023/09/15 10:39:37;;;;;;;6.47;3.03;;;19.90;99.90;;;;;;4985350;28;20042;-82
2023/09/15 10:42:08;;;;;;;7.78;2.92;;;20.00;99.90;;;;;;5001575;28;20050;-82
2023/09/15 10:44:35;;;;;;;6.63;2.33;;;20.10;99.90;;;;;;4984316;28;20039;-81
2023/09/15 10:47:13;;;;;;;8.95;2.42;;;20.20;99.90;;;;;;4975048;28;20043;-82
2023/09/15 10:49:49;;;;;;;6.22;2.60;;;20.10;99.90;;;;;;4996471;28;20039;-81
2023/09/15 10:52:16;;;;;;;5.05;2.22;;;20.40;99.90;;;;;;4988554;28;20129;-81
2023/09/15 10:54:42;;;;;;;6.20;2.70;;;20.50;99.90;;;;;;5026959;28;20125;-82
2023/09/15 10:57:09;;;;;;;6.63;2.67;;;20.60;99.90;;;;;;4990002;28;20038;-82
2023/09/15 10:59:37;;;;;;;8.52;2.58;;;20.60;99.90;;;;;;4994864;28;20483;-81
2023/09/15 11:02:05;;;;;;;8.73;2.50;;;20.50;99.90;;;;;;4994497;28;20043;-84
2023/09/15 11:04:32;;;;;;;7.28;2.63;;;20.60;99.90;;;;;;4983862;28;20045;-85
2023/09/15 11:06:59;;;;;;;6.13;2.40;;;20.50;99.90;;;;;;5002037;28;20038;-83
2023/09/15 11:09:26;;;;;;;6.63;3.00;;;20.50;99.90;;;;;;4994271;28;20081;-83
2023/09/15 11:11:53;;;;;;;8.27;2.40;;;20.50;99.90;;;;;;4984273;28;20804;-82
2023/09/15 11:14:22;;;;;;;5.20;2.35;;;20.50;99.90;;;;;;4990377;28;20094;-82
2023/09/15 11:16:51;;;;;;;6.13;2.88;;;20.60;99.90;;;;;;4990890;28;20129;-82
2023/09/15 11:19:19;;;;;;;7.43;2.53;;;20.60;99.90;;;;;;4990164;28;20535;-82
2023/09/15 11:21:47;;;;;;;8.18;2.47;;;20.60;99.90;;;;;;4977356;28;20030;-82
2023/09/15 11:24:15;;;;;;;7.63;2.10;;;20.60;99.90;;;;;;5026173;28;20045;-80
2023/09/15 11:26:46;;;;;;;4.25;2.03;;;20.70;99.90;;;;;;5010400;28;20046;-79
2023/09/15 11:29:14;;;;;;;5.70;2.30;;;20.70;99.90;;;;;;5025809;28;20046;-80
2023/09/15 11:31:42;;;;;;;5.97;2.25;;;20.70;99.90;;;;;;5026565;28;20514;-80
2023/09/15 11:34:09;;;;;;;7.65;2.40;;;20.70;99.90;;;;;;5009696;28;20039;-80
2023/09/15 11:36:36;;;;;;;6.22;2.78;;;20.70;99.90;;;;;;4975260;28;20038;-80
2023/09/15 11:39:10;;;;;;;6.43;2.63;;;20.70;99.90;;;;;;4990172;28;20043;-80
2023/09/15 11:41:53;;;;;;;6.60;2.45;;;20.80;99.90;;;;;;4975803;28;20491;-80
2023/09/15 11:44:29;;;;;;;6.10;2.70;;;20.90;99.90;;;;;;4992436;28;20161;-80
2023/09/15 11:46:58;;;;;;;5.25;2.47;;;20.90;99.90;;;;;;4975140;28;20039;-80
2023/09/15 11:49:25;;;;;;;9.00;2.35;;;20.80;99.90;;;;;;4974746;28;20521;-80
2023/09/15 11:51:56;;;;;;;9.23;3.05;;;20.90;99.90;;;;;;4974863;28;20130;-80
2023/09/15 11:54:23;;;;;;;6.68;2.75;;;20.90;99.90;;;;;;4990229;28;20090;-80
2023/09/15 11:56:52;;;;;;;11.35;3.15;;;20.90;99.90;;;;;;4974920;28;20093;-80
2023/09/15 11:59:20;;;;;;;5.43;2.55;;;20.90;99.90;;;;;;4990083;28;20443;-80
2023/09/15 12:01:48;;;;;;;5.78;2.45;;;20.90;99.90;;;;;;4974666;28;20050;-80
2023/09/15 12:04:15;;;;;;;10.57;2.50;;;21.00;99.90;;;;;;4990313;28;20061;-80
2023/09/15 12:06:42;;;;;;;6.35;2.65;;;21.00;99.90;;;;;;4974472;28;20081;-79
2023/09/15 12:09:12;;;;;;;6.28;2.80;;;21.00;99.90;;;;;;4974177;28;20475;-79
2023/09/15 12:11:44;;;;;;;4.45;2.22;;;21.00;99.90;;;;;;4975387;28;20038;-80
2023/09/15 12:14:14;;;;;;;8.02;2.53;;;20.90;99.90;;;;;;4974321;28;20058;-80
2023/09/15 12:16:46;;;;;;;5.43;2.22;;;21.00;99.90;;;;;;4974898;28;20089;-79
2023/09/15 12:19:14;;;;;;;6.70;2.40;;;21.10;99.90;;;;;;4990186;28;20521;-80
2023/09/15 12:21:55;;;;;;;7.32;2.70;;;21.10;99.90;;;;;;4990301;28;20126;-79
2023/09/15 12:24:23;;;;;;;6.53;2.38;;;21.10;99.90;;;;;;4989939;28;20415;-79
2023/09/15 12:26:50;;;;;;;6.05;2.15;;;21.10;99.90;;;;;;4974521;28;20043;-79
2023/09/15 12:29:17;;;;;;;3.97;1.95;;;21.10;99.90;;;;;;4974523;28;20089;-80
2023/09/15 12:31:44;;;;;;;5.30;2.30;;;21.20;99.90;;;;;;4974540;28;20372;-80
2023/09/15 12:34:19;;;;;;;10.02;2.70;;;21.20;99.90;;;;;;4973756;28;20089;-80
2023/09/15 12:36:47;;;;;;;9.25;2.38;;;21.20;99.90;;;;;;4990351;28;20043;-79
2023/09/15 12:39:14;;;;;;;7.22;2.40;;;21.20;99.90;;;;;;4989894;28;20034;-80
2023/09/15 12:41:43;;;;;;;5.82;2.17;;;21.20;99.90;;;;;;4974544;28;20035;-79
2023/09/15 12:44:12;;;;;;;5.00;2.17;;;21.20;99.90;;;;;;4975860;28;20038;-79
2023/09/15 12:46:39;;;;;;;5.97;2.60;;;21.20;99.90;;;;;;5009333;28;20084;-79
2023/09/15 12:49:06;;;;;;;5.22;2.70;;;21.20;99.90;;;;;;5001044;28;20469;-79
2023/09/15 12:51:33;;;;;;;4.85;2.40;;;21.20;99.90;;;;;;4997093;28;20458;-80